Pagrindinis puslapis
METAR-TAF:

METAR-TAF

Oro uostai :

Amari aerodromas

Amari, Estija

platuma: 59-15-44N, ilguma: 24-13-07E, Aukštis: 20 m

Dabartinis oras

Ataskaita buvo paskelbta 1 valandą ir 21 minutes, ne 12:50 UTC
Vėjas 10 kt iš Šiaurės Rytų
Temperatūra 14°C
Drėgmė 55%
Slėgis 1023 hPa
Matomumas 10 km arba daugiau
nėra debesų žemiau 1500 m ir nėra kamuolinių lietaus debesų

METAR: EEEI 011250Z 05010KT CAVOK 14/05 Q1023 NOSIG

Laikas: 17:11 (14:11 UTC)

Prognozė

Ataskaita buvo paskelbta 2 valandos ir 41 minutes, ne 11:30 UTC
Prognozė galioja nuo 01 metu 12 UTC su 02 metu 12 UTC
Vėjas 10 kt iš Rytų/Šiaurės Rytų
Matomumas 10 km arba daugiau
Išsisklaidę debesys ne aukštis 4000 ft

TAF: EEEI 011130Z 0112/0212 07010KT 9999 SCT040

Orai ataskaitas ir orų prognozės (METAR, TAF).

turimą stotys yra geltonos ir raudonos taškus žemėlapyje.

Perkelti pele per norėdami pamatyti stoties vardą.

Tada spustelėkite, norėdami matyti oro stebėjimo ir prognozės.

Norėdami pakeisti žemėlapį: spustelėkite ant žalios mygtukų su juodo kryžiaus žemyn,; žalią mygtuką su brūkšneliu, jei norite nutolinti; arba žalių rodyklių gretimoms žemėlapius.


METAR-TAF: